createdAt,value
2022-08-24T00:00:09.910Z,18.54
2022-08-24T00:01:09.889Z,18.50
2022-08-24T00:02:12.117Z,18.49
2022-08-24T00:03:10.039Z,18.46
2022-08-24T00:04:09.862Z,18.46
2022-08-24T00:05:13.997Z,18.46
2022-08-24T00:06:09.851Z,18.44
2022-08-24T00:07:19.249Z,18.40
2022-08-24T00:08:10.852Z,18.36
2022-08-24T00:09:09.812Z,18.33
2022-08-24T00:10:09.802Z,18.33
2022-08-24T00:11:09.781Z,18.31
2022-08-24T00:12:09.771Z,18.31
2022-08-24T00:13:09.762Z,18.31
2022-08-24T00:14:09.766Z,18.31
2022-08-24T00:15:09.745Z,18.28
2022-08-24T00:16:09.765Z,18.28
2022-08-24T00:17:09.733Z,18.25
2022-08-24T00:18:09.703Z,18.24
2022-08-24T00:19:09.736Z,18.21
2022-08-24T00:20:09.683Z,18.19
2022-08-24T00:21:09.673Z,18.17
2022-08-24T00:22:09.669Z,18.18
2022-08-24T00:23:09.644Z,18.13
2022-08-24T00:24:09.634Z,18.07
2022-08-24T00:25:09.644Z,18.03
2022-08-24T00:26:09.626Z,18.00
2022-08-24T00:27:09.595Z,17.99
2022-08-24T00:28:09.586Z,17.95
2022-08-24T00:29:09.585Z,17.94
2022-08-24T00:30:09.567Z,17.94
2022-08-24T00:31:09.615Z,17.91
2022-08-24T00:32:09.654Z,17.89
2022-08-24T00:33:09.527Z,17.91
2022-08-24T00:34:09.536Z,17.91
2022-08-24T00:35:09.517Z,17.91
2022-08-24T00:36:09.498Z,17.92
2022-08-24T00:37:09.507Z,17.91
2022-08-24T00:38:09.478Z,17.91
2022-08-24T00:39:09.477Z,17.88
2022-08-24T00:40:09.487Z,17.88
2022-08-24T00:41:09.479Z,17.88
2022-08-24T00:42:09.445Z,17.89
2022-08-24T00:43:09.457Z,17.87
2022-08-24T00:44:09.409Z,17.85
2022-08-24T00:45:09.389Z,17.85
2022-08-24T00:46:09.473Z,17.87
2022-08-24T00:47:09.369Z,17.89
2022-08-24T00:48:09.364Z,17.88
2022-08-24T00:49:09.380Z,17.89
2022-08-24T00:50:09.409Z,17.89
2022-08-24T00:51:09.329Z,17.88
2022-08-24T00:52:09.323Z,17.88
2022-08-24T00:53:09.300Z,17.87
2022-08-24T00:54:09.311Z,17.84
2022-08-24T00:55:09.311Z,17.82
2022-08-24T00:56:09.285Z,17.84
2022-08-24T00:57:09.263Z,17.84
2022-08-24T00:58:11.169Z,17.81
2022-08-24T00:59:10.252Z,17.79
2022-08-24T01:00:09.224Z,17.73
2022-08-24T01:01:09.386Z,17.70
2022-08-24T01:02:15.620Z,17.67
2022-08-24T01:03:10.193Z,17.66
2022-08-24T01:04:09.194Z,17.64
2022-08-24T01:05:09.178Z,17.59
2022-08-24T01:06:09.174Z,17.62
2022-08-24T01:07:09.143Z,17.55
2022-08-24T01:08:09.139Z,17.54
2022-08-24T01:09:09.139Z,17.54
2022-08-24T01:10:09.117Z,17.55
2022-08-24T01:11:09.119Z,17.55
2022-08-24T01:12:09.135Z,17.54
2022-08-24T01:13:09.135Z,17.54
2022-08-24T01:14:09.076Z,17.54
2022-08-24T01:15:09.057Z,17.53
2022-08-24T01:16:09.094Z,17.51
2022-08-24T01:17:09.027Z,17.48
2022-08-24T01:18:09.058Z,17.47
2022-08-24T01:19:09.024Z,17.44
2022-08-24T01:20:08.997Z,17.43
2022-08-24T01:21:08.988Z,17.44
2022-08-24T01:22:08.995Z,17.44
2022-08-24T01:23:08.966Z,17.43
2022-08-24T01:24:09.109Z,17.44
2022-08-24T01:25:08.938Z,17.43
2022-08-24T01:26:08.929Z,17.46
2022-08-24T01:27:08.930Z,17.46
2022-08-24T01:28:08.944Z,17.47
2022-08-24T01:29:08.902Z,17.47
2022-08-24T01:30:08.922Z,17.46
2022-08-24T01:31:08.894Z,17.46
2022-08-24T01:32:08.881Z,17.47
2022-08-24T01:33:08.850Z,17.47
2022-08-24T01:34:08.969Z,17.46
2022-08-24T01:35:08.921Z,17.46
2022-08-24T01:36:08.822Z,17.44
2022-08-24T01:37:08.801Z,17.41
2022-08-24T01:38:08.801Z,17.40
2022-08-24T01:39:08.780Z,17.36
2022-08-24T01:40:08.833Z,17.30
2022-08-24T01:41:08.781Z,17.26
2022-08-24T01:42:08.741Z,17.20
2022-08-24T01:43:08.729Z,17.17
2022-08-24T01:44:08.713Z,17.15
2022-08-24T01:45:08.695Z,17.13
2022-08-24T01:46:08.784Z,17.11
2022-08-24T01:47:08.706Z,17.10
2022-08-24T01:48:08.673Z,17.08
2022-08-24T01:49:08.656Z,17.10
2022-08-24T01:50:08.642Z,17.07
2022-08-24T01:51:08.670Z,17.07
2022-08-24T01:52:08.613Z,17.06
2022-08-24T01:53:08.646Z,17.07
2022-08-24T01:54:08.596Z,17.07
2022-08-24T01:55:08.584Z,17.06
2022-08-24T01:56:08.575Z,17.06
2022-08-24T01:57:08.555Z,17.06
2022-08-24T01:58:08.561Z,17.04
2022-08-24T01:59:08.569Z,17.03
2022-08-24T02:00:08.528Z,17.04
2022-08-24T02:01:08.516Z,17.06
2022-08-24T02:02:08.559Z,17.07
2022-08-24T02:03:08.554Z,17.07
2022-08-24T02:04:09.529Z,17.08
2022-08-24T02:05:08.507Z,17.08
2022-08-24T02:06:08.466Z,17.07
2022-08-24T02:07:08.456Z,17.04
2022-08-24T02:08:08.437Z,17.04
2022-08-24T02:09:08.434Z,17.04
2022-08-24T02:10:08.422Z,17.03
2022-08-24T02:11:08.419Z,17.00
2022-08-24T02:12:08.388Z,16.98
2022-08-24T02:13:08.387Z,16.95
2022-08-24T02:14:08.367Z,16.96
2022-08-24T02:15:08.350Z,16.96
2022-08-24T02:16:08.397Z,16.95
2022-08-24T02:17:08.330Z,16.93
2022-08-24T02:18:08.319Z,16.89
2022-08-24T02:19:09.304Z,16.88
2022-08-24T02:20:08.300Z,16.85
2022-08-24T02:21:08.280Z,16.83
2022-08-24T02:22:08.302Z,16.81
2022-08-24T02:23:08.270Z,16.81
2022-08-24T02:24:08.250Z,16.78
2022-08-24T02:25:08.238Z,16.77
2022-08-24T02:26:08.222Z,16.77
2022-08-24T02:27:08.216Z,16.75
2022-08-24T02:28:08.222Z,16.73
2022-08-24T02:29:08.192Z,16.74
2022-08-24T02:30:08.173Z,16.77
2022-08-24T02:31:08.213Z,16.77
2022-08-24T02:32:08.153Z,16.77
2022-08-24T02:33:08.161Z,16.77
2022-08-24T02:34:08.151Z,16.78
2022-08-24T02:35:08.132Z,16.77
2022-08-24T02:36:10.471Z,16.75
2022-08-24T02:37:09.134Z,16.77
2022-08-24T02:38:08.073Z,16.77
2022-08-24T02:39:08.073Z,16.77
2022-08-24T02:40:08.145Z,16.77
2022-08-24T02:41:08.043Z,16.74
2022-08-24T02:42:08.035Z,16.73
2022-08-24T02:43:08.019Z,16.67
2022-08-24T02:44:08.014Z,16.60
2022-08-24T02:45:07.985Z,16.59
2022-08-24T02:46:08.046Z,16.53
2022-08-24T02:47:08.970Z,16.52
2022-08-24T02:48:07.955Z,16.45
2022-08-24T02:49:11.209Z,16.42
2022-08-24T02:50:07.949Z,16.38
2022-08-24T02:51:07.916Z,16.40
2022-08-24T02:52:07.973Z,16.40
2022-08-24T02:53:07.911Z,16.38
2022-08-24T02:54:07.898Z,16.37
2022-08-24T02:55:07.888Z,16.35
2022-08-24T02:56:07.868Z,16.37
2022-08-24T02:57:07.857Z,16.37
2022-08-24T02:58:07.879Z,16.35
2022-08-24T02:59:07.832Z,16.34
2022-08-24T03:00:10.195Z,16.34
2022-08-24T03:01:08.297Z,16.34
2022-08-24T03:02:08.793Z,16.34
2022-08-24T03:03:07.839Z,16.34
2022-08-24T03:04:07.816Z,16.31
2022-08-24T03:05:07.774Z,16.34
2022-08-24T03:06:07.753Z,16.34
2022-08-24T03:07:07.752Z,16.35
2022-08-24T03:08:07.730Z,16.34
2022-08-24T03:09:07.714Z,16.34
2022-08-24T03:10:07.724Z,16.35
2022-08-24T03:11:07.691Z,16.33
2022-08-24T03:12:07.680Z,16.33
2022-08-24T03:13:07.695Z,16.33
2022-08-24T03:14:07.670Z,16.34
2022-08-24T03:15:07.631Z,16.34
2022-08-24T03:16:07.707Z,16.34
2022-08-24T03:17:07.621Z,16.34
2022-08-24T03:18:07.624Z,16.35
2022-08-24T03:19:07.606Z,16.34
2022-08-24T03:20:07.572Z,16.34
2022-08-24T03:21:07.564Z,16.35
2022-08-24T03:22:07.584Z,16.33
2022-08-24T03:23:07.536Z,16.27
2022-08-24T03:24:07.543Z,16.23
2022-08-24T03:25:07.521Z,16.20
2022-08-24T03:26:07.515Z,16.18
2022-08-24T03:27:08.270Z,16.18
2022-08-24T03:28:08.672Z,16.18
2022-08-24T03:29:07.474Z,16.12
2022-08-24T03:30:07.469Z,16.11
2022-08-24T03:31:07.562Z,16.09
2022-08-24T03:32:07.442Z,16.07
2022-08-24T03:33:07.417Z,16.04
2022-08-24T03:34:07.444Z,16.03
2022-08-24T03:35:07.394Z,16.04
2022-08-24T03:36:11.134Z,16.04
2022-08-24T03:37:08.376Z,16.04
2022-08-24T03:38:07.368Z,16.00
2022-08-24T03:39:07.348Z,16.00
2022-08-24T03:40:07.550Z,16.00
2022-08-24T03:41:08.338Z,16.01
2022-08-24T03:42:07.324Z,16.00
2022-08-24T03:43:07.308Z,15.97
2022-08-24T03:44:07.297Z,15.96
2022-08-24T03:45:07.357Z,15.94
2022-08-24T03:46:07.359Z,15.94
2022-08-24T03:47:07.273Z,15.99
2022-08-24T03:48:07.247Z,16.00
2022-08-24T03:49:07.238Z,16.00
2022-08-24T03:50:07.240Z,16.00
2022-08-24T03:51:07.279Z,15.99
2022-08-24T03:52:07.201Z,15.99
2022-08-24T03:53:07.189Z,15.99
2022-08-24T03:54:07.179Z,15.97
2022-08-24T03:55:07.160Z,15.99
2022-08-24T03:56:07.372Z,16.00
2022-08-24T03:57:07.162Z,16.01
2022-08-24T03:58:07.130Z,16.01
2022-08-24T03:59:07.120Z,16.01
2022-08-24T04:00:07.111Z,15.97
2022-08-24T04:01:07.146Z,15.96
2022-08-24T04:02:07.119Z,15.93
2022-08-24T04:03:07.102Z,15.94
2022-08-24T04:04:07.071Z,15.94
2022-08-24T04:05:07.052Z,15.94
2022-08-24T04:06:07.042Z,15.93
2022-08-24T04:07:07.022Z,15.92
2022-08-24T04:08:07.013Z,15.92
2022-08-24T04:09:07.035Z,15.94
2022-08-24T04:10:07.001Z,15.94
2022-08-24T04:11:06.993Z,15.94
2022-08-24T04:12:06.973Z,15.96
2022-08-24T04:13:07.021Z,15.96
2022-08-24T04:14:06.961Z,15.99
2022-08-24T04:15:06.961Z,16.01
2022-08-24T04:16:06.977Z,16.04
2022-08-24T04:17:06.929Z,16.09
2022-08-24T04:18:06.917Z,16.12
2022-08-24T04:19:06.884Z,16.14
2022-08-24T04:20:06.877Z,16.16
2022-08-24T04:21:06.897Z,16.20
2022-08-24T04:22:06.856Z,16.20
2022-08-24T04:23:06.845Z,16.22
2022-08-24T04:24:06.857Z,16.23
2022-08-24T04:25:09.219Z,16.22
2022-08-24T04:26:06.816Z,16.16
2022-08-24T04:27:06.837Z,16.20
2022-08-24T04:28:06.787Z,16.20
2022-08-24T04:29:08.409Z,16.22
2022-08-24T04:30:06.902Z,16.23
2022-08-24T04:31:06.789Z,16.25
2022-08-24T04:32:06.932Z,16.26
2022-08-24T04:33:06.766Z,16.27
2022-08-24T04:34:06.737Z,16.27
2022-08-24T04:35:06.794Z,16.27
2022-08-24T04:36:06.718Z,16.27
2022-08-24T04:37:10.853Z,16.30
2022-08-24T04:38:06.739Z,16.27
2022-08-24T04:39:06.718Z,16.27
2022-08-24T04:40:06.690Z,16.26
2022-08-24T04:41:06.775Z,16.26
2022-08-24T04:42:06.631Z,16.26
2022-08-24T04:43:06.630Z,16.30
2022-08-24T04:44:06.652Z,16.31
2022-08-24T04:45:06.603Z,16.33
2022-08-24T04:46:06.636Z,16.34
2022-08-24T04:47:06.600Z,16.34
2022-08-24T04:48:06.625Z,16.34
2022-08-24T04:49:06.541Z,16.34
2022-08-24T04:50:06.550Z,16.35
2022-08-24T04:51:06.521Z,16.37
2022-08-24T04:52:06.547Z,16.37
2022-08-24T04:53:06.502Z,16.37
2022-08-24T04:54:06.519Z,16.34
2022-08-24T04:55:06.517Z,16.33
2022-08-24T04:56:06.473Z,16.31
2022-08-24T04:57:06.453Z,16.30
2022-08-24T04:58:06.499Z,16.27
2022-08-24T04:59:06.442Z,16.25
2022-08-24T05:00:06.415Z,16.26
2022-08-24T05:01:06.520Z,16.26
2022-08-24T05:02:06.476Z,16.25
2022-08-24T05:03:06.398Z,16.26
2022-08-24T05:04:06.376Z,16.26
2022-08-24T05:05:06.354Z,16.30
2022-08-24T05:06:06.378Z,16.31
2022-08-24T05:07:06.367Z,16.31
2022-08-24T05:08:06.335Z,16.35
2022-08-24T05:09:06.337Z,16.38
2022-08-24T05:10:07.408Z,16.41
2022-08-24T05:11:06.283Z,16.45
2022-08-24T05:12:06.286Z,16.48
2022-08-24T05:13:06.292Z,16.50
2022-08-24T05:14:06.286Z,16.49
2022-08-24T05:15:07.253Z,16.50
2022-08-24T05:16:06.378Z,16.52
2022-08-24T05:17:06.226Z,16.53
2022-08-24T05:18:06.216Z,16.56
2022-08-24T05:19:06.265Z,16.58
2022-08-24T05:20:06.188Z,16.59
2022-08-24T05:21:06.182Z,16.60
2022-08-24T05:22:06.159Z,16.62
2022-08-24T05:23:06.390Z,16.63
2022-08-24T05:24:06.198Z,16.67
2022-08-24T05:25:06.128Z,16.68
2022-08-24T05:26:06.119Z,16.73
2022-08-24T05:27:06.122Z,16.75
2022-08-24T05:28:06.089Z,16.78
2022-08-24T05:29:06.089Z,16.83
2022-08-24T05:30:06.090Z,16.88
2022-08-24T05:31:06.098Z,16.89
2022-08-24T05:32:06.164Z,16.92
2022-08-24T05:33:06.196Z,16.95
2022-08-24T05:34:06.022Z,16.99
2022-08-24T05:35:06.041Z,17.06
2022-08-24T05:36:06.011Z,17.11
2022-08-24T05:37:06.002Z,17.14
2022-08-24T05:38:06.028Z,17.18
2022-08-24T05:39:10.531Z,17.25
2022-08-24T05:40:07.035Z,17.29
2022-08-24T05:41:05.942Z,17.35
2022-08-24T05:42:05.955Z,17.41
2022-08-24T05:43:05.943Z,17.48
2022-08-24T05:44:05.941Z,17.53
2022-08-24T05:45:05.913Z,17.57
2022-08-24T05:46:06.003Z,17.62
2022-08-24T05:47:05.911Z,17.64
2022-08-24T05:48:05.896Z,17.69
2022-08-24T05:49:05.876Z,17.74
2022-08-24T05:50:05.844Z,17.79
2022-08-24T05:51:05.868Z,17.87
2022-08-24T05:52:05.885Z,17.92
2022-08-24T05:53:06.077Z,17.99
2022-08-24T05:54:05.816Z,18.06
2022-08-24T05:55:05.785Z,18.12
2022-08-24T05:56:05.769Z,18.18
2022-08-24T05:57:05.808Z,18.22
2022-08-24T05:58:05.768Z,18.28
2022-08-24T05:59:05.746Z,18.34
2022-08-24T06:00:05.728Z,18.42
2022-08-24T06:01:05.716Z,18.49
2022-08-24T06:02:05.787Z,18.54
2022-08-24T06:03:05.875Z,18.58
2022-08-24T06:04:06.078Z,18.67
2022-08-24T06:05:05.669Z,18.74
2022-08-24T06:06:05.661Z,18.83
2022-08-24T06:07:05.648Z,18.92
2022-08-24T06:08:05.638Z,19.01
2022-08-24T06:09:05.669Z,19.14
2022-08-24T06:10:32.839Z,19.24
2022-08-24T06:11:06.611Z,19.36
2022-08-24T06:12:05.609Z,19.43
2022-08-24T06:13:05.869Z,19.54
2022-08-24T06:14:07.352Z,19.63
2022-08-24T06:15:05.579Z,19.61
2022-08-24T06:16:20.954Z,19.61
2022-08-24T06:17:06.617Z,19.68
2022-08-24T06:18:05.656Z,19.76
2022-08-24T06:19:05.510Z,19.79
2022-08-24T06:20:05.521Z,19.80
2022-08-24T06:21:05.644Z,19.79
2022-08-24T06:22:05.483Z,19.78
2022-08-24T06:23:05.527Z,19.83
2022-08-24T06:24:05.465Z,19.91
2022-08-24T06:25:05.451Z,20.00
2022-08-24T06:26:05.423Z,20.06
2022-08-24T06:27:05.462Z,20.15
2022-08-24T06:28:05.425Z,20.20
2022-08-24T06:29:05.413Z,20.28
2022-08-24T06:30:05.389Z,20.35
2022-08-24T06:31:05.427Z,20.46
2022-08-24T06:32:05.364Z,20.56
2022-08-24T06:33:05.590Z,20.66
2022-08-24T06:34:05.335Z,20.79
2022-08-24T06:35:05.376Z,20.86
2022-08-24T06:36:06.319Z,20.98
2022-08-24T06:37:05.337Z,21.05
2022-08-24T06:38:05.354Z,21.06
2022-08-24T06:39:05.509Z,21.11
2022-08-24T06:40:05.329Z,21.19
2022-08-24T06:41:05.267Z,21.16
2022-08-24T06:42:05.288Z,21.09
2022-08-24T06:43:05.413Z,21.17
2022-08-24T06:44:05.258Z,21.16
2022-08-24T06:45:05.276Z,21.19
2022-08-24T06:46:05.297Z,21.24
2022-08-24T06:47:05.247Z,21.34
2022-08-24T06:48:05.195Z,21.34
2022-08-24T06:49:05.178Z,21.29
2022-08-24T06:50:05.192Z,21.29
2022-08-24T06:51:05.151Z,21.27
2022-08-24T06:52:05.139Z,21.23
2022-08-24T06:53:05.291Z,21.24
2022-08-24T06:54:05.121Z,21.32
2022-08-24T06:55:05.114Z,21.32
2022-08-24T06:56:05.132Z,21.39
2022-08-24T06:57:05.091Z,21.44
2022-08-24T06:58:05.082Z,21.56
2022-08-24T06:59:05.068Z,21.71
2022-08-24T07:00:05.053Z,21.81
2022-08-24T07:01:05.043Z,21.88
2022-08-24T07:02:05.096Z,21.98
2022-08-24T07:03:05.161Z,22.02
2022-08-24T07:04:05.020Z,22.14
2022-08-24T07:05:05.005Z,22.29
2022-08-24T07:06:04.972Z,22.29
2022-08-24T07:07:04.983Z,22.34
2022-08-24T07:08:04.975Z,22.29
2022-08-24T07:09:04.946Z,22.34
2022-08-24T07:10:05.259Z,22.46
2022-08-24T07:11:04.923Z,22.52
2022-08-24T07:12:04.905Z,22.62
2022-08-24T07:13:05.202Z,22.74
2022-08-24T07:14:04.899Z,22.82
2022-08-24T07:15:04.874Z,22.89
2022-08-24T07:16:05.958Z,22.84
2022-08-24T07:17:04.882Z,22.89
2022-08-24T07:18:04.843Z,22.80
2022-08-24T07:19:04.859Z,22.74
2022-08-24T07:20:04.936Z,22.74
2022-08-24T07:21:04.807Z,22.75
2022-08-24T07:22:04.839Z,22.80
2022-08-24T07:23:05.050Z,22.86
2022-08-24T07:24:04.779Z,22.93
2022-08-24T07:25:04.883Z,22.94
2022-08-24T07:26:04.752Z,22.97
2022-08-24T07:27:04.741Z,22.96
2022-08-24T07:28:09.399Z,22.92
2022-08-24T07:29:05.760Z,22.89
2022-08-24T07:30:25.850Z,22.90
2022-08-24T07:31:05.828Z,22.89
2022-08-24T07:32:04.701Z,22.83
2022-08-24T07:33:04.731Z,22.86
2022-08-24T07:34:04.675Z,22.93
2022-08-24T07:35:04.683Z,23.04
2022-08-24T07:36:04.696Z,23.14
2022-08-24T07:37:04.647Z,23.20
2022-08-24T07:38:04.769Z,23.27
2022-08-24T07:39:04.644Z,23.39
2022-08-24T07:40:04.660Z,23.45
2022-08-24T07:41:35.449Z,23.52
2022-08-24T07:42:17.224Z,23.60
2022-08-24T07:43:05.584Z,23.55
2022-08-24T07:44:04.564Z,23.52
2022-08-24T07:45:04.579Z,23.57
2022-08-24T07:46:04.592Z,23.65
2022-08-24T07:47:27.238Z,23.75
2022-08-24T07:48:05.595Z,23.85
2022-08-24T07:49:12.634Z,23.97
2022-08-24T07:50:05.516Z,24.14
2022-08-24T07:51:04.544Z,24.27
2022-08-24T07:52:04.488Z,24.35
2022-08-24T07:53:04.714Z,24.39
2022-08-24T07:54:04.472Z,24.38
2022-08-24T07:55:05.441Z,24.34
2022-08-24T07:56:04.449Z,24.41
2022-08-24T07:57:04.413Z,24.34
2022-08-24T07:58:04.410Z,24.41
2022-08-24T07:59:04.429Z,24.56
2022-08-24T08:00:04.826Z,24.61
2022-08-24T08:01:04.484Z,24.53
2022-08-24T08:02:04.435Z,24.57
2022-08-24T08:03:04.772Z,24.67
2022-08-24T08:04:04.388Z,24.76
2022-08-24T08:05:05.080Z,24.90
2022-08-24T08:06:04.393Z,25.00
2022-08-24T08:07:04.342Z,25.09
2022-08-24T08:08:04.446Z,25.13
2022-08-24T08:09:04.271Z,25.19
2022-08-24T08:10:04.263Z,25.28
2022-08-24T08:11:04.290Z,25.35
2022-08-24T08:12:04.235Z,25.34
2022-08-24T08:13:04.238Z,25.28
2022-08-24T08:14:04.438Z,25.31
2022-08-24T08:15:04.246Z,25.24
2022-08-24T08:16:06.543Z,25.34
2022-08-24T08:17:04.261Z,25.42
2022-08-24T08:18:04.502Z,25.52
2022-08-24T08:19:10.454Z,25.61
2022-08-24T08:20:05.174Z,25.61
2022-08-24T08:21:04.139Z,25.49
2022-08-24T08:22:04.158Z,25.49
2022-08-24T08:23:04.141Z,25.50
2022-08-24T08:24:04.155Z,25.53
2022-08-24T08:25:04.087Z,25.54
2022-08-24T08:26:04.100Z,25.62
2022-08-24T08:27:04.130Z,25.72
2022-08-24T08:28:12.801Z,25.80
2022-08-24T08:29:05.057Z,25.91
2022-08-24T08:30:04.051Z,25.93
2022-08-24T08:31:04.111Z,25.75
2022-08-24T08:32:04.019Z,25.54
2022-08-24T08:33:04.150Z,25.42
2022-08-24T08:34:04.063Z,25.35
2022-08-24T08:35:03.986Z,25.39
2022-08-24T08:36:03.970Z,25.39
2022-08-24T08:37:04.011Z,25.52
2022-08-24T08:38:04.202Z,25.52
2022-08-24T08:39:03.941Z,25.46
2022-08-24T08:40:04.051Z,25.46
2022-08-24T08:41:03.943Z,25.57
2022-08-24T08:42:03.912Z,25.75
2022-08-24T08:43:03.881Z,25.93
2022-08-24T08:44:03.890Z,26.08
2022-08-24T08:45:03.893Z,26.31
2022-08-24T08:46:03.887Z,26.49
2022-08-24T08:47:03.843Z,26.55
2022-08-24T08:49:03.838Z,26.57
2022-08-24T08:50:03.823Z,26.58
2022-08-24T08:51:03.864Z,26.55
2022-08-24T08:52:03.813Z,26.58
2022-08-24T08:53:04.010Z,26.61
2022-08-24T08:54:03.792Z,26.74
2022-08-24T08:55:03.804Z,26.67
2022-08-24T08:56:03.780Z,26.52
2022-08-24T08:57:03.796Z,26.65
2022-08-24T08:58:03.735Z,26.74
2022-08-24T08:59:04.248Z,26.84
2022-08-24T09:00:03.710Z,27.01
2022-08-24T09:01:05.133Z,27.16
2022-08-24T09:02:03.714Z,27.17
2022-08-24T09:03:03.837Z,27.28
2022-08-24T09:04:03.710Z,27.17
2022-08-24T09:05:03.659Z,27.19
2022-08-24T09:06:03.654Z,27.09
2022-08-24T09:07:03.630Z,27.05
2022-08-24T09:08:03.843Z,27.14
2022-08-24T09:09:03.632Z,27.17
2022-08-24T09:10:03.602Z,27.19
2022-08-24T09:11:03.600Z,27.32
2022-08-24T09:12:03.570Z,27.43
2022-08-24T09:13:03.585Z,27.47
2022-08-24T09:14:03.562Z,27.43
2022-08-24T09:15:03.592Z,27.59
2022-08-24T09:16:06.057Z,27.71
2022-08-24T09:17:05.947Z,27.85
2022-08-24T09:18:03.646Z,28.06
2022-08-24T09:19:03.532Z,28.13
2022-08-24T09:20:03.533Z,28.19
2022-08-24T09:21:03.522Z,28.22
2022-08-24T09:22:03.464Z,28.33
2022-08-24T09:23:03.463Z,28.43
2022-08-24T09:24:03.435Z,28.38
2022-08-24T09:25:03.436Z,28.41
2022-08-24T09:26:03.417Z,28.54
2022-08-24T09:27:03.536Z,28.63
2022-08-24T09:28:03.763Z,28.63
2022-08-24T09:29:03.393Z,28.41
2022-08-24T09:30:03.377Z,28.13
2022-08-24T09:31:03.448Z,27.95
2022-08-24T09:32:03.391Z,27.89
2022-08-24T09:33:03.491Z,27.96
2022-08-24T09:34:04.094Z,28.14
2022-08-24T09:35:03.399Z,28.40
2022-08-24T09:36:03.331Z,28.50
2022-08-24T09:37:03.381Z,28.63
2022-08-24T09:38:03.358Z,28.85
2022-08-24T09:39:03.304Z,28.97
2022-08-24T09:40:03.423Z,29.03
2022-08-24T09:41:03.299Z,29.22
2022-08-24T09:42:03.296Z,29.37
2022-08-24T09:43:04.483Z,29.29
2022-08-24T09:44:03.569Z,29.43
2022-08-24T09:45:03.227Z,29.44
2022-08-24T09:46:03.282Z,29.47
2022-08-24T09:47:03.211Z,29.63
2022-08-24T09:48:03.171Z,29.65
2022-08-24T09:49:03.191Z,29.55
2022-08-24T09:50:03.194Z,29.50
2022-08-24T09:51:03.257Z,29.50
2022-08-24T09:52:03.151Z,29.53
2022-08-24T09:53:03.290Z,29.57
2022-08-24T09:54:03.139Z,29.65
2022-08-24T09:55:03.118Z,29.63
2022-08-24T09:56:03.114Z,29.70
2022-08-24T09:57:12.246Z,29.81
2022-08-24T09:58:04.087Z,29.35
2022-08-24T09:59:03.045Z,29.37
2022-08-24T10:00:03.045Z,29.56
2022-08-24T10:01:03.108Z,29.49
2022-08-24T10:02:03.078Z,29.66
2022-08-24T10:03:03.027Z,29.92
2022-08-24T10:04:03.007Z,30.21
2022-08-24T10:05:03.151Z,30.18
2022-08-24T10:06:03.097Z,29.87
2022-08-24T10:07:03.127Z,29.78
2022-08-24T10:08:03.240Z,29.84
2022-08-24T10:09:02.948Z,30.08
2022-08-24T10:10:02.945Z,30.23
2022-08-24T10:11:02.920Z,30.46
2022-08-24T10:12:02.910Z,30.40
2022-08-24T10:13:02.941Z,30.47
2022-08-24T10:14:02.894Z,30.62
2022-08-24T10:15:02.879Z,30.53
2022-08-24T10:16:02.885Z,30.54
2022-08-24T10:17:02.878Z,30.59
2022-08-24T10:18:02.985Z,30.59
2022-08-24T10:19:02.963Z,30.46
2022-08-24T10:20:02.833Z,30.46
2022-08-24T10:21:02.835Z,30.53
2022-08-24T10:22:02.801Z,30.68
2022-08-24T10:23:02.783Z,30.83
2022-08-24T10:24:02.852Z,30.78
2022-08-24T10:25:02.819Z,30.69
2022-08-24T10:26:02.751Z,30.83
2022-08-24T10:27:02.783Z,30.91
2022-08-24T10:28:02.887Z,31.04
2022-08-24T10:29:02.723Z,31.09
2022-08-24T10:30:02.767Z,30.98
2022-08-24T10:31:02.706Z,31.05
2022-08-24T10:32:02.819Z,31.09
2022-08-24T10:33:02.767Z,31.13
2022-08-24T10:34:02.674Z,31.09
2022-08-24T10:35:02.647Z,31.08
2022-08-24T10:36:02.912Z,31.13
2022-08-24T10:37:02.670Z,31.24
2022-08-24T10:38:02.777Z,31.36
2022-08-24T10:39:02.648Z,31.24
2022-08-24T10:40:05.013Z,31.06
2022-08-24T10:41:02.610Z,30.96
2022-08-24T10:42:02.620Z,30.76
2022-08-24T10:43:02.585Z,30.93
2022-08-24T10:44:02.562Z,31.09
2022-08-24T10:45:02.589Z,31.09
2022-08-24T10:46:02.667Z,30.98
2022-08-24T10:47:02.530Z,31.02
2022-08-24T10:48:02.703Z,30.89
2022-08-24T10:49:03.491Z,30.94
2022-08-24T10:50:02.527Z,31.05
2022-08-24T10:51:02.494Z,31.09
2022-08-24T10:52:02.515Z,30.96
2022-08-24T10:53:02.503Z,31.05
2022-08-24T10:54:02.464Z,31.06
2022-08-24T10:55:02.454Z,31.17
2022-08-24T10:56:02.445Z,31.36
2022-08-24T10:57:02.444Z,31.23
2022-08-24T10:58:02.564Z,31.04
2022-08-24T10:59:02.426Z,31.13
2022-08-24T11:00:02.396Z,31.18
2022-08-24T11:01:02.453Z,31.36
2022-08-24T11:02:02.402Z,31.49
2022-08-24T11:03:03.402Z,31.68
2022-08-24T11:04:02.413Z,31.55
2022-08-24T11:05:02.348Z,31.58
2022-08-24T11:06:02.360Z,31.64
2022-08-24T11:07:02.343Z,31.73
2022-08-24T11:08:02.594Z,31.80
2022-08-24T11:09:02.329Z,31.82
2022-08-24T11:10:02.311Z,31.92
2022-08-24T11:11:02.288Z,31.93
2022-08-24T11:12:02.260Z,31.82
2022-08-24T11:13:02.281Z,31.95
2022-08-24T11:14:02.241Z,32.13
2022-08-24T11:15:02.382Z,32.20
2022-08-24T11:16:02.306Z,32.13
2022-08-24T11:17:02.301Z,31.99
2022-08-24T11:18:02.308Z,32.15
2022-08-24T11:19:02.208Z,32.14
2022-08-24T11:20:02.173Z,32.21
2022-08-24T11:21:02.347Z,32.32
2022-08-24T11:22:02.155Z,32.10
2022-08-24T11:23:02.194Z,31.64
2022-08-24T11:24:02.171Z,31.73
2022-08-24T11:25:02.173Z,31.95
2022-08-24T11:26:02.345Z,32.14
2022-08-24T11:27:02.106Z,32.27
2022-08-24T11:28:02.086Z,32.35
2022-08-24T11:29:02.078Z,32.48
2022-08-24T11:30:02.057Z,32.67
2022-08-24T11:31:02.126Z,32.71
2022-08-24T11:32:02.056Z,32.84
2022-08-24T11:33:02.046Z,32.59
2022-08-24T11:34:02.008Z,32.51
2022-08-24T11:35:02.007Z,32.57
2022-08-24T11:36:01.987Z,32.40
2022-08-24T11:37:02.117Z,32.32
2022-08-24T11:38:01.962Z,32.37
2022-08-24T11:39:01.959Z,32.55
2022-08-24T11:40:01.963Z,32.57
2022-08-24T11:41:01.930Z,32.67
2022-08-24T11:42:01.940Z,32.58
2022-08-24T11:43:05.755Z,32.58
2022-08-24T11:44:01.911Z,32.74
2022-08-24T11:45:01.993Z,32.92
2022-08-24T11:46:01.898Z,32.91
2022-08-24T11:47:01.933Z,33.01
2022-08-24T11:48:01.913Z,32.91
2022-08-24T11:49:01.872Z,32.98
2022-08-24T11:50:01.849Z,33.04
2022-08-24T11:51:01.836Z,33.06
2022-08-24T11:52:01.804Z,33.11
2022-08-24T11:53:01.815Z,33.10
2022-08-24T11:54:01.786Z,32.70
2022-08-24T11:55:01.825Z,32.54
2022-08-24T11:56:01.780Z,32.57
2022-08-24T11:57:01.808Z,32.79
2022-08-24T11:58:01.786Z,32.76
2022-08-24T11:59:01.748Z,32.81
2022-08-24T12:00:01.793Z,32.80
2022-08-24T12:01:01.736Z,32.48
2022-08-24T12:02:01.803Z,32.49
2022-08-24T12:03:01.797Z,32.57
2022-08-24T12:04:01.678Z,32.69
2022-08-24T12:05:01.686Z,32.86
2022-08-24T12:06:01.689Z,32.86
2022-08-24T12:07:01.650Z,32.69
2022-08-24T12:08:01.714Z,32.67
2022-08-24T12:09:01.667Z,32.76
2022-08-24T12:10:01.632Z,32.74
2022-08-24T12:11:01.612Z,32.71
2022-08-24T12:12:01.622Z,32.69
2022-08-24T12:13:01.583Z,32.85
2022-08-24T12:14:01.590Z,32.95
2022-08-24T12:15:01.594Z,33.07
2022-08-24T12:16:01.660Z,33.06
2022-08-24T12:17:01.564Z,33.10
2022-08-24T12:18:01.565Z,33.06
2022-08-24T12:19:01.527Z,32.47
2022-08-24T12:20:01.505Z,32.43
2022-08-24T12:21:01.504Z,32.37
2022-08-24T12:22:01.488Z,32.40
2022-08-24T12:23:01.506Z,32.22
2022-08-24T12:24:01.457Z,32.10
2022-08-24T12:25:01.455Z,32.15
2022-08-24T12:26:01.435Z,32.18
2022-08-24T12:27:01.436Z,32.25
2022-08-24T12:28:01.427Z,32.22
2022-08-24T12:29:01.458Z,32.24
2022-08-24T12:30:01.439Z,32.21
2022-08-24T12:31:01.474Z,32.32
2022-08-24T12:32:01.368Z,32.39
2022-08-24T12:33:01.373Z,32.48
2022-08-24T12:34:01.369Z,32.43
2022-08-24T12:35:01.374Z,32.18
2022-08-24T12:36:01.331Z,32.13
2022-08-24T12:37:01.328Z,31.99
2022-08-24T12:38:01.300Z,32.00
2022-08-24T12:39:01.310Z,32.06
2022-08-24T12:40:01.380Z,32.07
2022-08-24T12:41:03.354Z,31.93
2022-08-24T12:42:02.262Z,31.80
2022-08-24T12:43:01.313Z,31.87
2022-08-24T12:44:01.248Z,31.93
2022-08-24T12:45:01.251Z,31.85
2022-08-24T12:46:01.330Z,31.91
2022-08-24T12:47:01.216Z,32.05
2022-08-24T12:48:01.217Z,32.10
2022-08-24T12:49:01.200Z,32.10
2022-08-24T12:50:01.219Z,32.17
2022-08-24T12:51:01.184Z,32.20
2022-08-24T12:52:01.167Z,32.32
2022-08-24T12:53:01.176Z,32.17